Orange, TX (77630)

1:22 AM CST on December 10, 2016 (GMT -0600)
Northmont | | Change Station
Active Advisory: Freeze Warning

Elev 30 ft 30.12 °N, 93.76 °W | Updated 20 seconds ago

Clear
Clear
36.5 °F
Feels Like 36 °F
N
0.0
Wind Variable Wind from ESE

Today
High -- | Low -- °F
--% Chance of Precip.
Yesterday
High -- | Low -- °F
Precip. -- in
Pressure 30.55 in
Visibility 10.0 miles
Clouds Clear
Windchill 36 °F
Dew Point 28 °F
Humidity 73%
Rainfall 0.00 in
Snow Depth Not available.
7:00 AM 5:15 PM
Waxing Gibbous, 81% visible
METAR KORG 100715Z AUTO 05006KT 10SM CLR 03/M03 A3055 RMK AO2 T00261035
Pressure 30.55 in
Visibility 10.0 miles
Clouds Clear
Windchill 36 °F
Dew Point 28 °F
Humidity 73%
Rainfall 0.00 in
Snow Depth Not available.
7:00 AM 5:15 PM
Waxing Gibbous, 81% visible
METAR KORG 100715Z AUTO 05006KT 10SM CLR 03/M03 A3055 RMK AO2 T00261035

10-Day Weather Forecast

Almanac

Astronomy

Dec. 10, 2016 Rise Set
Actual Time
Civil Twilight
Nautical Twilight
Astronomical Twilight
Moon
Length of Visible Light
Length of Day
Tomorrow will be .
, % of the Moon is Illuminated

Today's Extremes

State Highs State Lows

Community

WunderPhotos

Upload Photos

1,956,527 photos uploaded!

WunderBlog® & News

Nearby

Air Quality

  Air Quality AQ Index Pollutant
Not available.

Snow Depth

Station Depth Elevation

Earthquake Activity

City Distance Mag. Time & Date
Minimum magnitude displayed is 2.5.

Coastal Water Temperatures

Place Temperature

Stations

Nearby Weather Stations

Station Location Temp. Windchill Dew Point Humidity Wind Precip. Elev Updated Type
                   

Watches & Warnings

Freeze Warning
Issued: 8:55 PM CST Dec. 9, 2016 – National Weather Service

... Freeze warning remains in effect until 9 am CST Saturday...

* temperature... prolonged period of 25 to 30 degrees across
interior East Texas and central Louisiana generally along and
north of the Highway 190 corridor. Shorter duration 30 to 32
along the I-10 corridor.

* Impacts... freezing temperatures will kill crops and sensitive
vegetation left outdoors. Pets should be brought inside or
provided a climate controlled shelter.

Precautionary/preparedness actions...

A freeze warning means sub-freezing temperatures are imminent or
highly likely. These conditions will kill crops and other
sensitive vegetation.